Chappaquiddick Island, Massachusetts
Current Conditions -  °F | °C
As of 12:53 PM on Friday 31 Oct 2014 (Local Time) from KMVY Reporting Station
Overcast Overcast  
Wind Chill: 54°   Ceiling: 2100
Heat Index: 54°   Visibility: 10mi
Dew Point: 46°   Wind: 10mph
Humidity: 75%   Direction: 70°ENE
Pressure: 29.97"   Gusts: NA
Location:  41.3788°N, 70.5416°W
Report Text: KMVY 311653Z 07009KT 10SM BKN021 BKN039 OVC048 12/08 A2997 RMK AO2 RAB00E18 SLP147 P0000 T01220078
Loading
Personal Weather Stations






























Interactive Weather Map
Tropical Storm Tracking
New forecast layout! Learn more

10-Day Weather Forecast

Advertisements
Track Severe Weather on mobile